Time;durP1;ratioP1;P1;durP2;ratioP2;P2;SDS_P1;SDS_P2;PMS_P1;PMS_P2;Temp;Humidity;BMP_temperature;BMP_pressure;BME280_temperature;BME280_humidity;BME280_pressure;Samples;Min_cycle;Max_cycle;Signal;HPM_P1;HPM_P2
2021/09/09 00:00:42;;;;;;;18.50;16.17;;;;;;;;;;5033521;28;20453;-62
2021/09/09 00:03:10;;;;;;;20.30;15.20;;;;;;;;;;5033357;28;20848;-62
2021/09/09 00:05:37;;;;;;;18.03;16.17;;;;;;;;;;5033167;28;20511;-62
2021/09/09 00:08:06;;;;;;;18.40;16.50;;;;;;;;;;5033195;28;20445;-62
2021/09/09 00:10:33;;;;;;;18.83;15.73;;;;;;;;;;5033306;28;20449;-62
2021/09/09 00:13:00;;;;;;;17.67;15.73;;;;;;;;;;5033188;28;20547;-61
2021/09/09 00:15:28;;;;;;;18.17;16.27;;;;;;;;;;5032923;28;20936;-61
2021/09/09 00:17:55;;;;;;;18.73;16.73;;;;;;;;;;5033287;28;20461;-62
2021/09/09 00:20:23;;;;;;;19.30;16.80;;;;;;;;;;5033518;28;20449;-62
2021/09/09 00:22:50;;;;;;;21.67;17.37;;;;;;;;;;5032931;28;20934;-62
2021/09/09 00:25:18;;;;;;;18.80;16.33;;;;;;;;;;5037102;28;20445;-62
2021/09/09 00:27:46;;;;;;;19.87;15.33;;;;;;;;;;5036947;28;20464;-62
2021/09/09 00:30:14;;;;;;;22.20;18.00;;;;;;;;;;5037260;28;20503;-62
2021/09/09 00:32:41;;;;;;;21.20;17.03;;;;;;;;;;5037043;28;20444;-62
2021/09/09 00:35:09;;;;;;;21.20;17.37;;;;;;;;;;5037288;28;20449;-61
2021/09/09 00:37:36;;;;;;;18.83;16.83;;;;;;;;;;5036693;28;20481;-62
2021/09/09 00:40:03;;;;;;;23.30;17.53;;;;;;;;;;5036680;28;20476;-62
2021/09/09 00:42:32;;;;;;;20.60;17.23;;;;;;;;;;5036914;28;20499;-62
2021/09/09 00:44:59;;;;;;;21.97;17.77;;;;;;;;;;5037031;28;20448;-62
2021/09/09 00:47:26;;;;;;;18.40;16.57;;;;;;;;;;5038100;28;20518;-62
2021/09/09 00:49:53;;;;;;;22.27;17.00;;;;;;;;;;5037719;28;20506;-62
2021/09/09 00:52:21;;;;;;;21.53;18.00;;;;;;;;;;5037481;28;20445;-62
2021/09/09 00:54:48;;;;;;;20.17;17.97;;;;;;;;;;5037566;28;20480;-62
2021/09/09 00:57:16;;;;;;;19.33;16.83;;;;;;;;;;5036596;28;20464;-62
2021/09/09 00:59:45;;;;;;;19.07;16.73;;;;;;;;;;5036873;28;20539;-62
2021/09/09 01:02:13;;;;;;;21.07;17.10;;;;;;;;;;5036772;28;20449;-62
2021/09/09 01:04:40;;;;;;;18.97;17.00;;;;;;;;;;5036689;28;20440;-62
2021/09/09 01:07:07;;;;;;;20.10;17.80;;;;;;;;;;5036262;28;20473;-62
2021/09/09 01:09:35;;;;;;;19.70;16.87;;;;;;;;;;5036569;28;20763;-61
2021/09/09 01:12:02;;;;;;;23.23;15.93;;;;;;;;;;5036501;28;20798;-62
2021/09/09 01:14:29;;;;;;;23.03;18.07;;;;;;;;;;5036237;28;20530;-62
2021/09/09 01:16:58;;;;;;;20.93;17.50;;;;;;;;;;5036220;28;20465;-62
2021/09/09 01:19:25;;;;;;;19.20;17.20;;;;;;;;;;5036241;28;20495;-62
2021/09/09 01:21:52;;;;;;;21.63;18.03;;;;;;;;;;5036188;28;20519;-63
2021/09/09 01:24:22;;;;;;;22.07;17.87;;;;;;;;;;5035862;28;20441;-62
2021/09/09 01:26:53;;;;;;;21.17;17.80;;;;;;;;;;5036016;28;20499;-63
2021/09/09 01:29:21;;;;;;;22.47;18.70;;;;;;;;;;5036357;28;20506;-63
2021/09/09 01:31:48;;;;;;;19.63;17.40;;;;;;;;;;5036078;28;20440;-63
2021/09/09 01:34:16;;;;;;;21.63;18.87;;;;;;;;;;5036584;28;20539;-62
2021/09/09 01:36:43;;;;;;;21.23;19.03;;;;;;;;;;5035316;28;20535;-63
2021/09/09 01:39:10;;;;;;;20.03;17.10;;;;;;;;;;5036059;28;20499;-63
2021/09/09 01:41:39;;;;;;;22.83;18.67;;;;;;;;;;5035885;28;20449;-63
2021/09/09 01:44:06;;;;;;;19.60;17.50;;;;;;;;;;5035804;28;20445;-63
2021/09/09 01:46:34;;;;;;;21.90;19.67;;;;;;;;;;5035573;28;20511;-63
2021/09/09 01:49:01;;;;;;;20.40;18.23;;;;;;;;;;5035722;28;20453;-62
2021/09/09 01:51:28;;;;;;;22.40;19.67;;;;;;;;;;5035746;28;20495;-62
2021/09/09 01:53:56;;;;;;;20.40;18.30;;;;;;;;;;5035252;28;20481;-62
2021/09/09 01:56:23;;;;;;;25.30;19.57;;;;;;;;;;5035462;28;20495;-62
2021/09/09 01:58:52;;;;;;;23.20;20.10;;;;;;;;;;5035192;28;20994;-63
2021/09/09 02:01:21;;;;;;;20.30;18.20;;;;;;;;;;5035086;28;20887;-63
2021/09/09 02:03:48;;;;;;;21.43;19.10;;;;;;;;;;5035373;28;20437;-63
2021/09/09 02:06:16;;;;;;;22.37;18.43;;;;;;;;;;5035354;28;20465;-63
2021/09/09 02:08:43;;;;;;;22.53;19.07;;;;;;;;;;5035010;28;20453;-63
2021/09/09 02:11:11;;;;;;;21.63;19.37;;;;;;;;;;5034979;28;20932;-63
2021/09/09 02:13:39;;;;;;;25.23;18.70;;;;;;;;;;5035117;28;20531;-63
2021/09/09 02:16:07;;;;;;;22.20;19.90;;;;;;;;;;5035064;28;20543;-63
2021/09/09 02:18:35;;;;;;;22.70;19.60;;;;;;;;;;5035158;28;20449;-62
2021/09/09 02:21:02;;;;;;;23.50;19.33;;;;;;;;;;5035063;28;20490;-62
2021/09/09 02:23:29;;;;;;;23.43;19.37;;;;;;;;;;5034798;28;20933;-62
2021/09/09 02:25:57;;;;;;;27.60;20.40;;;;;;;;;;5034926;28;20491;-62
2021/09/09 02:28:24;;;;;;;22.97;20.40;;;;;;;;;;5035228;28;20445;-62
2021/09/09 02:30:51;;;;;;;23.43;19.47;;;;;;;;;;5035419;28;21010;-62
2021/09/09 02:33:20;;;;;;;23.00;20.43;;;;;;;;;;5035023;28;20448;-62
2021/09/09 02:35:47;;;;;;;24.53;20.47;;;;;;;;;;5034783;28;20448;-63
2021/09/09 02:38:14;;;;;;;23.07;20.47;;;;;;;;;;5034538;28;20434;-62
2021/09/09 02:40:42;;;;;;;22.33;19.93;;;;;;;;;;5034391;28;20994;-63
2021/09/09 02:43:09;;;;;;;22.03;19.40;;;;;;;;;;5034497;28;20457;-63
2021/09/09 02:45:36;;;;;;;26.37;20.80;;;;;;;;;;5034345;28;20851;-63
2021/09/09 02:48:04;;;;;;;22.70;20.13;;;;;;;;;;5033301;28;20449;-63
2021/09/09 02:50:33;;;;;;;24.13;20.67;;;;;;;;;;5034505;28;20441;-63
2021/09/09 02:53:00;;;;;;;28.43;21.40;;;;;;;;;;5034140;28;20448;-63
2021/09/09 02:55:28;;;;;;;26.90;22.67;;;;;;;;;;5034074;28;20550;-63
2021/09/09 02:57:55;;;;;;;27.30;21.03;;;;;;;;;;5034004;28;20972;-63
2021/09/09 03:00:22;;;;;;;25.43;20.33;;;;;;;;;;5034575;28;20444;-62
2021/09/09 03:02:49;;;;;;;24.50;21.20;;;;;;;;;;5034601;28;20445;-63
2021/09/09 03:05:17;;;;;;;24.53;21.63;;;;;;;;;;5034535;28;20505;-63
2021/09/09 03:07:45;;;;;;;26.40;22.43;;;;;;;;;;5034209;28;20526;-63
2021/09/09 03:10:13;;;;;;;25.27;20.57;;;;;;;;;;5034317;28;20472;-63
2021/09/09 03:12:41;;;;;;;26.40;23.23;;;;;;;;;;5034377;28;20567;-63
2021/09/09 03:15:09;;;;;;;27.87;22.40;;;;;;;;;;5034051;28;20534;-62
2021/09/09 03:17:36;;;;;;;30.63;23.40;;;;;;;;;;5033905;28;20465;-62
2021/09/09 03:20:03;;;;;;;28.93;22.00;;;;;;;;;;5033792;28;20805;-63
2021/09/09 03:22:31;;;;;;;27.70;23.27;;;;;;;;;;5033967;28;20449;-63
2021/09/09 03:24:59;;;;;;;26.40;21.90;;;;;;;;;;5034112;28;20453;-63
2021/09/09 03:27:26;;;;;;;26.40;22.63;;;;;;;;;;5033996;28;20519;-63
2021/09/09 03:29:54;;;;;;;26.47;22.93;;;;;;;;;;5035171;28;20471;-64
2021/09/09 03:32:21;;;;;;;30.00;23.43;;;;;;;;;;5035415;28;20507;-63
2021/09/09 03:34:48;;;;;;;26.50;22.83;;;;;;;;;;5034021;28;20477;-63
2021/09/09 03:37:15;;;;;;;27.20;22.27;;;;;;;;;;5033275;28;20480;-63
2021/09/09 03:39:43;;;;;;;27.80;23.23;;;;;;;;;;5033841;28;20445;-63
2021/09/09 03:42:11;;;;;;;25.33;22.63;;;;;;;;;;5033729;28;20504;-62
2021/09/09 03:44:39;;;;;;;27.63;23.30;;;;;;;;;;5033258;28;20940;-63
2021/09/09 03:47:06;;;;;;;29.27;24.57;;;;;;;;;;5033533;28;20465;-63
2021/09/09 03:49:33;;;;;;;26.40;23.67;;;;;;;;;;5033183;28;20536;-63
2021/09/09 03:52:00;;;;;;;27.60;23.40;;;;;;;;;;5033463;28;20449;-63
2021/09/09 03:54:27;;;;;;;33.60;24.47;;;;;;;;;;5032948;28;20823;-63
2021/09/09 03:56:55;;;;;;;28.70;23.40;;;;;;;;;;5033365;28;20460;-63
2021/09/09 03:59:23;;;;;;;29.77;25.50;;;;;;;;;;5033037;28;20526;-63
2021/09/09 04:01:50;;;;;;;27.20;23.40;;;;;;;;;;5033195;28;20449;-63
2021/09/09 04:04:18;;;;;;;32.93;25.47;;;;;;;;;;5033014;28;20449;-63
2021/09/09 04:08:33;;;;;;;31.97;24.60;;;;;;;;;;5091640;27;20556;-63
2021/09/09 04:11:00;;;;;;;29.20;24.00;;;;;;;;;;5090818;28;20503;-64
2021/09/09 04:13:28;;;;;;;27.13;24.23;;;;;;;;;;5090899;28;20438;-64
2021/09/09 04:15:55;;;;;;;28.10;24.83;;;;;;;;;;5090343;28;20438;-63
2021/09/09 04:18:22;;;;;;;27.83;24.40;;;;;;;;;;5090597;28;20442;-62
2021/09/09 04:20:49;;;;;;;32.97;25.80;;;;;;;;;;5090852;28;20503;-62
2021/09/09 04:23:16;;;;;;;31.57;24.93;;;;;;;;;;5090704;28;20504;-64
2021/09/09 04:25:45;;;;;;;34.13;24.43;;;;;;;;;;5090428;28;20492;-64
2021/09/09 04:28:13;;;;;;;32.30;26.17;;;;;;;;;;5090420;28;21082;-63
2021/09/09 04:30:40;;;;;;;30.87;26.27;;;;;;;;;;5090405;28;20450;-63
2021/09/09 04:33:07;;;;;;;33.90;25.97;;;;;;;;;;5090651;28;20442;-63
2021/09/09 04:35:34;;;;;;;30.43;26.40;;;;;;;;;;5090630;28;20454;-62
2021/09/09 04:38:02;;;;;;;30.43;25.90;;;;;;;;;;5090244;28;20476;-62
2021/09/09 04:40:30;;;;;;;28.37;25.20;;;;;;;;;;5091240;28;20450;-62
2021/09/09 04:42:58;;;;;;;34.50;26.40;;;;;;;;;;5090948;28;20439;-64
2021/09/09 04:45:26;;;;;;;31.70;24.73;;;;;;;;;;5090912;28;20519;-63
2021/09/09 04:47:53;;;;;;;34.87;26.07;;;;;;;;;;5090544;28;20563;-62
2021/09/09 04:50:21;;;;;;;32.87;27.03;;;;;;;;;;5090364;28;20485;-63
2021/09/09 04:52:48;;;;;;;32.40;26.10;;;;;;;;;;5090448;28;20499;-63
2021/09/09 04:55:15;;;;;;;32.40;26.20;;;;;;;;;;5090484;28;20442;-63
2021/09/09 04:57:42;;;;;;;31.37;25.73;;;;;;;;;;5089953;28;20970;-63
2021/09/09 05:00:12;;;;;;;29.20;25.40;;;;;;;;;;5089924;28;20505;-64
2021/09/09 05:02:39;;;;;;;30.53;25.83;;;;;;;;;;5089583;28;20504;-64
2021/09/09 05:05:07;;;;;;;29.60;25.20;;;;;;;;;;5089861;28;20496;-62
2021/09/09 05:07:35;;;;;;;34.87;26.70;;;;;;;;;;5089042;28;20986;-63
2021/09/09 05:10:03;;;;;;;29.57;25.90;;;;;;;;;;5089625;28;20474;-63
2021/09/09 05:12:30;;;;;;;29.77;25.77;;;;;;;;;;5089702;28;20446;-62
2021/09/09 05:14:57;;;;;;;29.70;24.70;;;;;;;;;;5089598;28;20543;-63
2021/09/09 05:17:26;;;;;;;29.30;25.10;;;;;;;;;;5089445;28;20527;-62
2021/09/09 05:19:53;;;;;;;29.80;25.70;;;;;;;;;;5077172;28;20504;-61
2021/09/09 05:22:20;;;;;;;30.10;24.20;;;;;;;;;;5076127;28;20443;-62
2021/09/09 05:24:48;;;;;;;29.90;24.90;;;;;;;;;;5076154;28;20497;-64
2021/09/09 05:27:15;;;;;;;29.93;24.63;;;;;;;;;;5075808;28;20483;-64
2021/09/09 05:29:42;;;;;;;26.87;23.00;;;;;;;;;;5076017;28;20497;-63
2021/09/09 05:32:09;;;;;;;29.50;23.83;;;;;;;;;;5075779;28;20509;-64
2021/09/09 05:34:38;;;;;;;29.03;22.70;;;;;;;;;;5077427;28;20885;-63
2021/09/09 05:37:05;;;;;;;31.27;24.80;;;;;;;;;;5077538;28;20466;-63
2021/09/09 05:39:33;;;;;;;30.27;25.70;;;;;;;;;;5075204;28;20477;-64
2021/09/09 05:42:00;;;;;;;29.77;24.70;;;;;;;;;;5075612;28;20451;-62
2021/09/09 05:44:27;;;;;;;29.03;23.63;;;;;;;;;;5075355;28;20447;-63
2021/09/09 05:46:54;;;;;;;29.67;25.53;;;;;;;;;;5075341;28;20491;-63
2021/09/09 05:49:22;;;;;;;30.30;25.03;;;;;;;;;;5075145;28;20447;-63
2021/09/09 05:51:50;;;;;;;27.20;22.40;;;;;;;;;;5075584;28;20447;-65
2021/09/09 05:54:17;;;;;;;26.20;22.63;;;;;;;;;;5075150;28;20443;-63
2021/09/09 05:56:45;;;;;;;28.13;22.33;;;;;;;;;;5075213;28;20516;-62
2021/09/09 05:59:12;;;;;;;31.03;22.37;;;;;;;;;;5074821;28;20930;-63
2021/09/09 06:01:39;;;;;;;29.10;22.30;;;;;;;;;;5075153;28;20496;-63
2021/09/09 06:04:10;;;;;;;25.20;21.40;;;;;;;;;;5075174;28;20480;-63
2021/09/09 06:06:37;;;;;;;27.63;22.20;;;;;;;;;;5074570;28;20483;-63
2021/09/09 06:09:06;;;;;;;26.90;23.30;;;;;;;;;;5074716;28;20956;-62
2021/09/09 06:11:33;;;;;;;26.97;21.37;;;;;;;;;;5074969;28;20524;-63
2021/09/09 06:14:00;;;;;;;23.13;20.67;;;;;;;;;;5074686;28;20447;-62
2021/09/09 06:16:28;;;;;;;27.83;21.50;;;;;;;;;;5074887;28;20513;-64
2021/09/09 06:18:55;;;;;;;23.57;20.30;;;;;;;;;;5075028;28;20447;-63
2021/09/09 06:21:22;;;;;;;25.40;21.60;;;;;;;;;;5075271;28;20505;-63
2021/09/09 06:23:50;;;;;;;24.60;21.60;;;;;;;;;;5074871;28;20443;-62
2021/09/09 06:26:19;;;;;;;24.60;22.07;;;;;;;;;;5074574;28;20517;-62
2021/09/09 06:28:46;;;;;;;25.07;20.27;;;;;;;;;;5074784;28;20479;-62
2021/09/09 06:31:13;;;;;;;25.60;21.23;;;;;;;;;;5073870;28;20443;-62
2021/09/09 06:33:40;;;;;;;24.00;21.43;;;;;;;;;;5074615;28;20447;-64
2021/09/09 06:36:08;;;;;;;26.43;20.93;;;;;;;;;;5074652;28;20517;-64
2021/09/09 06:38:35;;;;;;;23.73;19.33;;;;;;;;;;5074084;28;20804;-62
2021/09/09 06:41:02;;;;;;;22.50;19.80;;;;;;;;;;5074245;28;20923;-64
2021/09/09 06:43:31;;;;;;;22.90;19.37;;;;;;;;;;5073889;28;20447;-62
2021/09/09 06:45:58;;;;;;;22.13;19.80;;;;;;;;;;5074187;28;20463;-63
2021/09/09 06:48:26;;;;;;;21.50;18.70;;;;;;;;;;5074057;28;21018;-63
2021/09/09 06:50:53;;;;;;;22.80;20.13;;;;;;;;;;5074207;28;20508;-63
2021/09/09 06:53:20;;;;;;;22.07;19.70;;;;;;;;;;5075269;28;20868;-63
2021/09/09 06:55:48;;;;;;;21.90;19.57;;;;;;;;;;5074432;28;20563;-63
2021/09/09 06:58:15;;;;;;;26.37;18.47;;;;;;;;;;5074435;28;20447;-63
2021/09/09 07:00:43;;;;;;;25.83;19.57;;;;;;;;;;5074642;28;20505;-64
2021/09/09 07:03:11;;;;;;;19.00;16.90;;;;;;;;;;5075002;28;20482;-62
2021/09/09 07:05:38;;;;;;;22.93;18.80;;;;;;;;;;5073764;28;20455;-62
2021/09/09 07:08:06;;;;;;;20.03;16.70;;;;;;;;;;5073466;28;20536;-61
2021/09/09 07:10:33;;;;;;;24.70;18.77;;;;;;;;;;5074501;28;20492;-63
2021/09/09 07:13:00;;;;;;;108.50;24.40;;;;;;;;;;5073892;28;20451;-61
2021/09/09 07:15:27;;;;;;;21.77;16.90;;;;;;;;;;5073477;28;20448;-62
2021/09/09 07:17:56;;;;;;;57.40;20.90;;;;;;;;;;5073599;28;20513;-63
2021/09/09 07:20:23;;;;;;;26.07;18.77;;;;;;;;;;5073351;28;20508;-63
2021/09/09 07:22:50;;;;;;;43.67;21.43;;;;;;;;;;5073461;28;20455;-63
2021/09/09 07:25:18;;;;;;;28.03;18.20;;;;;;;;;;5073693;28;20536;-62
2021/09/09 07:27:45;;;;;;;20.10;16.53;;;;;;;;;;5073713;28;20562;-62
2021/09/09 07:30:13;;;;;;;19.83;15.23;;;;;;;;;;5073239;28;20473;-62
2021/09/09 07:32:40;;;;;;;41.77;17.13;;;;;;;;;;5073273;28;20447;-63
2021/09/09 07:35:10;;;;;;;17.67;15.20;;;;;;;;;;5074585;28;20447;-63
2021/09/09 07:37:38;;;;;;;29.77;16.63;;;;;;;;;;5078231;28;20471;-62
2021/09/09 07:40:05;;;;;;;21.93;14.67;;;;;;;;;;5073595;28;20455;-63
2021/09/09 07:42:33;;;;;;;20.43;14.03;;;;;;;;;;5073364;28;20443;-64
2021/09/09 07:45:00;;;;;;;14.30;12.80;;;;;;;;;;5074632;28;20451;-63
2021/09/09 07:47:28;;;;;;;18.47;14.63;;;;;;;;;;5084062;28;20467;-62
2021/09/09 07:49:55;;;;;;;20.80;14.13;;;;;;;;;;5075901;28;20535;-62
2021/09/09 07:52:24;;;;;;;44.33;16.33;;;;;;;;;;5073727;28;20484;-63
2021/09/09 07:54:51;;;;;;;21.10;13.40;;;;;;;;;;5073603;28;20493;-61
2021/09/09 07:57:18;;;;;;;15.83;11.97;;;;;;;;;;5073103;28;20467;-63
2021/09/09 07:59:45;;;;;;;17.03;13.27;;;;;;;;;;5073524;28;20450;-63
2021/09/09 08:02:14;;;;;;;15.03;12.83;;;;;;;;;;5073831;28;20447;-64
2021/09/09 08:04:42;;;;;;;14.13;12.63;;;;;;;;;;5073317;28;20451;-62
2021/09/09 08:07:09;;;;;;;14.07;12.37;;;;;;;;;;5072929;28;20474;-63
2021/09/09 08:09:37;;;;;;;12.10;10.90;;;;;;;;;;5072907;28;20478;-63
2021/09/09 08:12:06;;;;;;;17.53;12.60;;;;;;;;;;5072989;28;20452;-62
2021/09/09 08:14:33;;;;;;;11.23;10.13;;;;;;;;;;5073070;28;20443;-63
2021/09/09 08:17:01;;;;;;;11.93;10.73;;;;;;;;;;5072922;28;20846;-63
2021/09/09 08:19:28;;;;;;;12.60;11.30;;;;;;;;;;5072820;28;20534;-62
2021/09/09 08:21:55;;;;;;;13.43;11.10;;;;;;;;;;5073247;28;20451;-61
2021/09/09 08:24:22;;;;;;;11.70;10.10;;;;;;;;;;5072818;28;20512;-62
2021/09/09 08:26:51;;;;;;;122.77;21.17;;;;;;;;;;5072615;28;20457;-61
2021/09/09 08:29:19;;;;;;;17.00;10.67;;;;;;;;;;5072849;28;20484;-61
2021/09/09 08:31:46;;;;;;;11.50;10.13;;;;;;;;;;5072990;28;20459;-62
2021/09/09 08:34:14;;;;;;;11.97;9.40;;;;;;;;;;5072899;28;20517;-63
2021/09/09 08:36:41;;;;;;;11.17;10.07;;;;;;;;;;5072812;28;20894;-61
2021/09/09 08:39:08;;;;;;;10.23;9.13;;;;;;;;;;5072644;28;20498;-62
2021/09/09 08:41:36;;;;;;;14.73;10.10;;;;;;;;;;5073234;28;20461;-61
2021/09/09 08:44:05;;;;;;;10.30;9.17;;;;;;;;;;5072607;28;20445;-61
2021/09/09 08:46:32;;;;;;;11.23;9.30;;;;;;;;;;5072365;28;20524;-63
2021/09/09 08:49:00;;;;;;;10.37;8.80;;;;;;;;;;5072754;28;20528;-63
2021/09/09 08:51:27;;;;;;;11.27;9.23;;;;;;;;;;5072474;28;20507;-65
2021/09/09 08:53:55;;;;;;;9.80;8.80;;;;;;;;;;5074393;28;20966;-64
2021/09/09 08:56:22;;;;;;;12.50;10.10;;;;;;;;;;5077218;28;20466;-64
2021/09/09 08:58:49;;;;;;;10.87;8.90;;;;;;;;;;5076154;28;20931;-63
2021/09/09 09:01:19;;;;;;;11.40;8.97;;;;;;;;;;5076657;28;20462;-62
2021/09/09 09:03:47;;;;;;;12.17;8.63;;;;;;;;;;5076431;28;20539;-63
2021/09/09 09:06:36;;;;;;;10.87;9.10;;;;;;;;;;5076868;28;20470;-62
2021/09/09 09:09:06;;;;;;;9.77;8.77;;;;;;;;;;5076285;28;20477;-62
2021/09/09 09:11:34;;;;;;;20.03;9.43;;;;;;;;;;5076412;28;20447;-62
2021/09/09 09:14:01;;;;;;;24.70;11.43;;;;;;;;;;5075906;28;20820;-62
2021/09/09 09:16:30;;;;;;;62.10;12.30;;;;;;;;;;5075930;28;20548;-62
2021/09/09 09:18:59;;;;;;;133.97;20.93;;;;;;;;;;5076079;28;20493;-62
2021/09/09 09:21:28;;;;;;;20.57;9.10;;;;;;;;;;5076123;28;20826;-62
2021/09/09 09:23:56;;;;;;;10.80;8.67;;;;;;;;;;5076070;28;20513;-64
2021/09/09 09:26:23;;;;;;;12.73;9.40;;;;;;;;;;5075828;28;20474;-63
2021/09/09 09:28:52;;;;;;;10.43;8.90;;;;;;;;;;5075352;28;21000;-62
2021/09/09 09:31:20;;;;;;;10.93;8.87;;;;;;;;;;5083110;22;20490;-53
2021/09/09 09:33:51;;;;;;;9.73;8.63;;;;;;;;;;5035862;28;20451;-54
2021/09/09 09:36:20;;;;;;;11.30;9.20;;;;;;;;;;5036025;28;20787;-53
2021/09/09 09:38:48;;;;;;;12.03;9.17;;;;;;;;;;5035195;28;20995;-54
2021/09/09 09:41:18;;;;;;;11.03;9.30;;;;;;;;;;5035345;28;20470;-51
2021/09/09 09:43:52;;;;;;;8.60;7.70;;;;;;;;;;5035521;28;20811;-54
2021/09/09 09:46:27;;;;;;;10.10;8.20;;;;;;;;;;5035246;28;20990;-54
2021/09/09 09:48:55;;;;;;;13.63;8.90;;;;;;;;;;5035556;28;20898;-52
2021/09/09 09:51:41;;;;;;;13.97;10.70;;;;;;;;;;5035251;28;20474;-54
2021/09/09 09:54:10;;;;;;;22.63;9.90;;;;;;;;;;5035336;28;20480;-54
2021/09/09 09:56:38;;;;;;;9.90;8.90;;;;;;;;;;5035149;28;20935;-53
2021/09/09 09:59:06;;;;;;;10.03;8.93;;;;;;;;;;5034874;28;20447;-54
2021/09/09 10:01:33;;;;;;;8.97;8.07;;;;;;;;;;5035225;28;20468;-52
2021/09/09 10:04:04;;;;;;;10.93;9.83;;;;;;;;;;5035513;28;20465;-55
2021/09/09 10:06:32;;;;;;;9.67;8.80;;;;;;;;;;5035116;28;20431;-54
2021/09/09 10:08:59;;;;;;;9.03;8.23;;;;;;;;;;5035220;28;20943;-54
2021/09/09 10:11:27;;;;;;;11.97;8.90;;;;;;;;;;5034838;28;20812;-55
2021/09/09 10:13:55;;;;;;;14.13;10.37;;;;;;;;;;5034616;28;20449;-55
2021/09/09 10:16:23;;;;;;;10.43;8.13;;;;;;;;;;5035296;28;20449;-53
2021/09/09 10:18:50;;;;;;;10.30;8.57;;;;;;;;;;5035984;28;20438;-55
2021/09/09 10:21:36;;;;;;;9.33;8.00;;;;;;;;;;5034884;28;20468;-51
2021/09/09 10:24:09;;;;;;;56.40;11.57;;;;;;;;;;5035732;28;20500;-53
2021/09/09 10:26:36;;;;;;;17.63;8.87;;;;;;;;;;5035679;28;20454;-54
2021/09/09 10:29:08;;;;;;;15.37;7.27;;;;;;;;;;5034205;28;21103;-54
2021/09/09 10:31:38;;;;;;;9.57;8.67;;;;;;;;;;5034427;28;20488;-54
2021/09/09 10:34:07;;;;;;;8.70;7.80;;;;;;;;;;5034368;28;20953;-54
2021/09/09 10:36:43;;;;;;;11.50;8.00;;;;;;;;;;5034367;28;20445;-54
2021/09/09 10:39:12;;;;;;;8.73;7.93;;;;;;;;;;5034073;28;20488;-54
2021/09/09 10:41:40;;;;;;;8.70;7.90;;;;;;;;;;5034003;28;20567;-55
2021/09/09 10:44:08;;;;;;;8.90;8.00;;;;;;;;;;5034281;28;20548;-53
2021/09/09 10:46:38;;;;;;;8.40;7.53;;;;;;;;;;5034609;28;20451;-55
2021/09/09 10:49:07;;;;;;;8.90;8.00;;;;;;;;;;5034201;28;20479;-55
2021/09/09 10:51:34;;;;;;;9.33;8.23;;;;;;;;;;5033873;28;20473;-55
2021/09/09 10:54:02;;;;;;;9.50;8.50;;;;;;;;;;5034225;28;20452;-55
2021/09/09 10:56:35;;;;;;;9.77;8.37;;;;;;;;;;5033771;28;20477;-54
2021/09/09 10:59:20;;;;;;;8.80;8.00;;;;;;;;;;5033950;28;20837;-55
2021/09/09 11:01:48;;;;;;;9.73;8.03;;;;;;;;;;5034425;28;20828;-54
2021/09/09 11:04:32;;;;;;;11.50;7.70;;;;;;;;;;5033678;28;20447;-54
2021/09/09 11:06:59;;;;;;;8.33;7.53;;;;;;;;;;5034444;28;20999;-54
2021/09/09 11:09:27;;;;;;;8.80;8.00;;;;;;;;;;5033750;28;20485;-55
2021/09/09 11:12:00;;;;;;;8.60;7.70;;;;;;;;;;5033607;28;20495;-55
2021/09/09 11:14:27;;;;;;;8.97;8.07;;;;;;;;;;5033520;28;20947;-55
2021/09/09 11:16:54;;;;;;;11.13;8.43;;;;;;;;;;5032731;28;20454;-55
2021/09/09 11:19:22;;;;;;;10.50;9.50;;;;;;;;;;5033504;28;20512;-55
2021/09/09 11:21:50;;;;;;;13.20;12.00;;;;;;;;;;5033048;28;20507;-55
2021/09/09 11:24:18;;;;;;;13.60;12.20;;;;;;;;;;5034400;28;20452;-55
2021/09/09 11:26:46;;;;;;;10.57;9.57;;;;;;;;;;5033387;28;20459;-54
2021/09/09 11:29:16;;;;;;;11.10;8.10;;;;;;;;;;5033146;28;20481;-55
2021/09/09 11:31:46;;;;;;;10.47;9.47;;;;;;;;;;5033110;28;21019;-54
2021/09/09 11:34:13;;;;;;;11.20;7.67;;;;;;;;;;5032810;28;20452;-52
2021/09/09 11:36:42;;;;;;;7.90;7.10;;;;;;;;;;5032912;28;20461;-53
2021/09/09 11:39:10;;;;;;;9.03;7.40;;;;;;;;;;5033066;28;20514;-55
2021/09/09 11:41:38;;;;;;;9.83;7.20;;;;;;;;;;5032859;28;20967;-55
2021/09/09 11:44:08;;;;;;;8.93;8.03;;;;;;;;;;5032516;28;20918;-55
2021/09/09 11:46:37;;;;;;;8.17;7.47;;;;;;;;;;5032963;28;20461;-57
2021/09/09 11:49:05;;;;;;;8.00;7.30;;;;;;;;;;5033461;28;20483;-57
2021/09/09 11:51:37;;;;;;;8.37;7.57;;;;;;;;;;5032789;28;20480;-55
2021/09/09 11:54:05;;;;;;;8.83;8.03;;;;;;;;;;5033424;28;20534;-55
2021/09/09 11:56:32;;;;;;;8.70;7.80;;;;;;;;;;5033343;28;20469;-55
2021/09/09 11:59:03;;;;;;;9.20;7.47;;;;;;;;;;5032785;28;20955;-55
2021/09/09 12:01:31;;;;;;;7.67;7.00;;;;;;;;;;5032798;28;20472;-55
2021/09/09 12:04:00;;;;;;;10.77;8.03;;;;;;;;;;5033224;28;20473;-55
2021/09/09 12:06:28;;;;;;;8.20;6.57;;;;;;;;;;5032731;28;20952;-55
2021/09/09 12:08:55;;;;;;;9.47;7.10;;;;;;;;;;5032784;28;20486;-55
2021/09/09 12:11:22;;;;;;;7.67;6.73;;;;;;;;;;5032875;28;20470;-55
2021/09/09 12:13:49;;;;;;;7.90;7.20;;;;;;;;;;5033075;28;20445;-57
2021/09/09 12:16:18;;;;;;;10.53;7.23;;;;;;;;;;5032676;28;21012;-55
2021/09/09 12:18:46;;;;;;;8.03;7.23;;;;;;;;;;5032530;28;20454;-54
2021/09/09 12:21:16;;;;;;;13.20;8.30;;;;;;;;;;5032958;28;20506;-55
2021/09/09 12:24:03;;;;;;;8.10;7.40;;;;;;;;;;5032551;28;20947;-56
2021/09/09 12:26:31;;;;;;;7.80;6.80;;;;;;;;;;5032910;28;20514;-56
2021/09/09 12:28:59;;;;;;;7.90;7.23;;;;;;;;;;5034363;28;20449;-55
2021/09/09 12:31:33;;;;;;;7.77;7.07;;;;;;;;;;5036443;28;20605;-54
2021/09/09 12:34:01;;;;;;;11.43;7.10;;;;;;;;;;5037393;28;20451;-55
2021/09/09 12:36:40;;;;;;;7.50;6.80;;;;;;;;;;5036886;28;20495;-54
2021/09/09 12:39:08;;;;;;;8.33;7.53;;;;;;;;;;5036684;28;20511;-54
2021/09/09 12:41:35;;;;;;;8.47;7.67;;;;;;;;;;5036302;28;20466;-58
2021/09/09 12:44:16;;;;;;;8.97;8.00;;;;;;;;;;5036681;28;20496;-55
2021/09/09 12:46:44;;;;;;;8.33;7.37;;;;;;;;;;5036699;28;20542;-59
2021/09/09 12:49:12;;;;;;;8.57;7.20;;;;;;;;;;5036724;28;20566;-60
2021/09/09 12:51:42;;;;;;;8.50;7.57;;;;;;;;;;5036110;28;20475;-55
2021/09/09 12:54:10;;;;;;;9.73;7.83;;;;;;;;;;5036453;28;20490;-55
2021/09/09 12:56:38;;;;;;;9.73;8.20;;;;;;;;;;5035852;28;20460;-55
2021/09/09 12:59:05;;;;;;;7.67;6.97;;;;;;;;;;5036343;28;20500;-57
2021/09/09 13:01:33;;;;;;;8.37;7.57;;;;;;;;;;5035882;28;20578;-56
2021/09/09 13:04:00;;;;;;;8.13;7.30;;;;;;;;;;5036034;28;20447;-55
2021/09/09 13:06:27;;;;;;;8.40;7.70;;;;;;;;;;5035997;28;20499;-56
2021/09/09 13:08:56;;;;;;;8.47;7.67;;;;;;;;;;5036248;28;20451;-54
2021/09/09 13:11:23;;;;;;;8.40;7.60;;;;;;;;;;5036270;28;20471;-56
2021/09/09 13:13:50;;;;;;;11.23;7.50;;;;;;;;;;5035793;28;21001;-56
2021/09/09 13:16:18;;;;;;;9.47;8.57;;;;;;;;;;5035801;28;20451;-57
2021/09/09 13:18:46;;;;;;;8.97;8.10;;;;;;;;;;5035694;28;20529;-55
2021/09/09 13:21:17;;;;;;;9.10;8.20;;;;;;;;;;5035737;28;20473;-56
2021/09/09 13:23:45;;;;;;;8.20;7.37;;;;;;;;;;5035677;28;20431;-56
2021/09/09 13:26:15;;;;;;;8.10;7.40;;;;;;;;;;5035733;28;20922;-57
2021/09/09 13:28:43;;;;;;;9.83;7.50;;;;;;;;;;5035373;28;20457;-57
2021/09/09 13:31:11;;;;;;;7.50;6.90;;;;;;;;;;5035130;28;20486;-57
2021/09/09 13:33:38;;;;;;;8.73;6.77;;;;;;;;;;5035262;28;20447;-56
2021/09/09 13:36:06;;;;;;;7.40;6.80;;;;;;;;;;5035166;28;20445;-57
2021/09/09 13:38:33;;;;;;;9.00;7.57;;;;;;;;;;5035209;28;20534;-58
2021/09/09 13:41:00;;;;;;;9.03;7.20;;;;;;;;;;5035045;28;20540;-57
2021/09/09 13:43:29;;;;;;;8.70;7.90;;;;;;;;;;5035871;28;20507;-57
2021/09/09 13:45:56;;;;;;;10.03;8.53;;;;;;;;;;5035371;28;20448;-57
2021/09/09 13:48:23;;;;;;;7.93;7.00;;;;;;;;;;5035467;28;20456;-55
2021/09/09 13:50:51;;;;;;;7.47;6.70;;;;;;;;;;5035144;28;20489;-54
2021/09/09 13:53:18;;;;;;;9.90;9.07;;;;;;;;;;5035682;28;20505;-56
2021/09/09 13:55:46;;;;;;;7.97;7.17;;;;;;;;;;5035201;28;20449;-56
2021/09/09 13:58:13;;;;;;;7.90;7.20;;;;;;;;;;5035472;28;20496;-53
2021/09/09 14:00:42;;;;;;;8.13;7.33;;;;;;;;;;5035236;28;20529;-54
2021/09/09 14:03:09;;;;;;;7.17;6.57;;;;;;;;;;5035137;28;20815;-55
2021/09/09 14:05:37;;;;;;;7.80;7.10;;;;;;;;;;5034802;28;20498;-56
2021/09/09 14:08:04;;;;;;;7.43;6.70;;;;;;;;;;5035203;28;20449;-56
2021/09/09 14:10:31;;;;;;;7.53;6.67;;;;;;;;;;5035547;28;20493;-56
2021/09/09 14:12:59;;;;;;;7.70;7.00;;;;;;;;;;5036812;28;20440;-56
2021/09/09 14:15:26;;;;;;;8.03;7.33;;;;;;;;;;5034898;28;20452;-56
2021/09/09 14:17:54;;;;;;;7.10;6.50;;;;;;;;;;5035143;28;20506;-56
2021/09/09 14:20:22;;;;;;;8.73;7.20;;;;;;;;;;5034994;28;20464;-56
2021/09/09 14:22:49;;;;;;;8.47;6.90;;;;;;;;;;5035032;28;20447;-56
2021/09/09 14:25:16;;;;;;;7.50;6.63;;;;;;;;;;5034535;28;20506;-56
2021/09/09 14:27:43;;;;;;;8.43;7.73;;;;;;;;;;5034644;28;20448;-56
2021/09/09 14:30:11;;;;;;;7.83;7.03;;;;;;;;;;5034644;28;20547;-56
2021/09/09 14:32:38;;;;;;;9.30;7.40;;;;;;;;;;5034484;28;20440;-57